AirNav   Free Bose QuietComfort 20
 
 1187 users online  

NE16 Gothenburg Memorial Hospital Heliport
Gothenburg, Nebraska, USA

GOING TO GOTHENBURG?


FAA INFORMATION EFFECTIVE 05 DECEMBER 2019

Location

FAA Identifier: NE16
Lat/Long: 40-56-21.8200N 100-09-14.1400W
40-56.363667N 100-09.235667W
40.9393944,-100.1539278
(estimated)
Elevation: 2680 ft. / 817 m (estimated)
Variation: 09E (1995)
Time zone: UTC -6 (UTC -5 during Daylight Saving Time)
Zip code: 69138

Heliport Operations

Heliport use: Private use, FOR MEDICAL USE ONLY.
Activation date: 05/1998
Control tower: no
ARTCC: DENVER CENTER
FSS: COLUMBUS FLIGHT SERVICE STATION
Attendance: CONTINUOUS
Segmented circle: no

Heliport Communications

WX AWOS-3 at LXN (19 nm SE): 121.025 (308-324-5975)

Nearby radio navigation aids

VOR radial/distance  VOR name  Freq  Var
OZBr292/(8.0)COZAD VOR109.0009E
LBFr093/27.7NORTH PLATTE VOR/DME117.4011E
CUZr205/38.8CUSTER COUNTY VOR/DME108.2008E

 
NDB name  Hdg/Dist  Freq  Var  ID
HARRY STRUNK355/38.138905ECSB -.-. ... -...

Heliport Services

Runway Information

Helipad H1

Dimensions: 30 x 30 ft. / 9 x 9 m
Surface: concrete
Latitude: 40-56.363667N
Longitude: 100-09.235667W
Elevation: 2680.0 ft.
Traffic pattern: leftleft

Heliport Ownership and Management from official FAA records

Ownership: Privately-owned
Owner: GOTHENBURG MEMORIAL HOSPITAL
910 20TH STREET
GOTHENBURG, NE 69138
Phone 308-537-3661
Manager: GOTHENBURG MEMORIAL HOSPITAL
910 20TH STREET
GOTHENBURG, NE 69138
Phone 308-537-3661

Additional Remarks

OWNER DESIRES ARPT NOT BE CHARTED.
FOR CD CTC DENVER ARTCC AT 303-651-4257.

Instrument Procedures

There are no published instrument procedures at NE16.

Some nearby airports with instrument procedures:

KGTE - Gothenburg Municipal Airport (1 nm S)
KCZD - Cozad Municipal Airport (8 nm SE)
KLXN - Jim Kelly Field Airport (19 nm SE)
47V - Curtis Municipal Airport (23 nm SW)
KLBF - North Platte Regional Airport Lee Bird Field (26 nm NW)
 
Loc | Ops | Rwys | IFR | FBO | Links
Com | Nav | Svcs | Stats | Notes

Silverhawk Aviation, Inc.
AirBoss

 
Area around NE16 (Gothenburg Memorial Hospital Heliport)
 
Road maps at: MapQuest Bing Google
 
Aerial photo
No photo
 
Sectional chart

 
Airport distance calculator
Flying to Gothenburg Memorial Hospital Heliport? Find the distance to fly.

From to NE16

Sunrise and sunset
Times for 13-Dec-2019
 Local
(UTC-6)
 Zulu
(UTC)
Morning civil twilight07:2713:27
Sunrise07:5813:58
Sunset17:1223:12
Evening civil twilight17:4323:43

Current date and time
Zulu (UTC)  13-Dec-2019 14:24:42
Local (UTC-6)  13-Dec-2019 08:24:42
 
METAR
KLXN 
20nm SE 
131355Z AUTO 29007KT 10SM CLR M02/M03 A2983 RMK AO2 T10201031
KLBF 
26nm NW 
131353Z AUTO 00000KT 10SM CLR M03/M04 A2983 RMK AO2 SLP129 T10331044
KBBW 
37nm NE 
131353Z AUTO 34005KT 10SM CLR 00/M04 A2981 RMK AO2 SLP115 T00001044
TAF
KLBF 
26nm NW 
131139Z 1312/1412 31005KT P6SM BKN200 FM132100 31013KT P6SM -RA BKN060 TEMPO 1322/1402 4SM -SN BR BKN025 OVC040 FM140200 33008KT P6SM VCSH BKN045 FM140700 33005KT P6SM BKN025
NOTAMs
Click for the latest NOTAMs
NOTAMs are issued by the DoD/FAA and will open in a separate window not controlled by AirNav.

 

 
 

Would you like to see your business listed on this page?

 If your business provides an interesting product or service to pilots, flight crews, aircraft, or users of the Gothenburg Memorial Hospital Heliport, you should consider listing it here.  To start the listing process, click on the button below
 
Add a business
 

Other Pages about Gothenburg Memorial Hospital Heliport

Update a link
 
Copyright © AirNav, LLC. All rights reserved. Privacy Policy  Contact